Time;durP1;ratioP1;P1;durP2;ratioP2;P2;SDS_P1;SDS_P2;PMS_P1;PMS_P2;Temp;Humidity;BMP_temperature;BMP_pressure;BME280_temperature;BME280_humidity;BME280_pressure;Samples;Min_cycle;Max_cycle;Signal;HPM_P1;HPM_P2
2021/05/21 00:02:21;;;;;;;16.73;9.95;;;15.00;90.90;;;;;;5055540;28;20599;-84
2021/05/21 00:04:46;;;;;;;12.77;9.93;;;15.00;90.70;;;;;;5057045;28;20021;-86
2021/05/21 00:07:12;;;;;;;12.85;9.32;;;14.90;90.70;;;;;;5039419;28;20494;-85
2021/05/21 00:09:38;;;;;;;12.73;10.38;;;14.90;90.70;;;;;;5062999;28;20025;-85
2021/05/21 00:12:04;;;;;;;13.00;9.80;;;14.90;90.80;;;;;;5056533;28;20025;-85
2021/05/21 00:14:30;;;;;;;12.27;9.43;;;14.90;90.80;;;;;;5056560;28;20021;-87
2021/05/21 00:16:56;;;;;;;17.38;8.52;;;15.00;90.70;;;;;;5047672;28;20086;-85
2021/05/21 00:19:22;;;;;;;12.75;9.10;;;14.90;90.70;;;;;;5044224;28;20025;-85
2021/05/21 00:21:48;;;;;;;12.38;9.35;;;14.80;90.80;;;;;;5069195;28;20021;-84
2021/05/21 00:24:14;;;;;;;10.30;8.60;;;14.80;90.90;;;;;;5049042;28;20366;-86
2021/05/21 00:26:40;;;;;;;9.50;8.13;;;14.80;90.80;;;;;;5057219;28;20032;-87
2021/05/21 00:29:06;;;;;;;9.80;8.02;;;14.80;90.80;;;;;;5042603;28;20049;-86
2021/05/21 00:31:32;;;;;;;13.77;9.15;;;14.80;90.80;;;;;;5023131;28;20025;-85
2021/05/21 00:33:59;;;;;;;12.63;8.50;;;14.80;90.70;;;;;;5040050;28;20022;-88
2021/05/21 00:36:26;;;;;;;11.63;8.63;;;14.80;90.80;;;;;;5036718;28;20021;-87
2021/05/21 00:38:52;;;;;;;10.88;8.00;;;14.70;90.90;;;;;;5037789;28;20555;-88
2021/05/21 00:41:22;;;;;;;12.13;8.13;;;14.70;90.80;;;;;;5041393;28;20482;-86
2021/05/21 00:43:52;;;;;;;9.45;6.35;;;14.80;90.90;;;;;;5037233;28;20028;-88
2021/05/21 00:46:18;;;;;;;7.13;5.90;;;14.80;90.70;;;;;;5018273;28;20364;-86
2021/05/21 00:48:44;;;;;;;7.03;6.32;;;14.80;90.20;;;;;;5029708;28;20026;-87
2021/05/21 00:51:10;;;;;;;8.30;6.32;;;14.80;90.40;;;;;;5030401;28;20040;-88
2021/05/21 00:53:37;;;;;;;7.13;5.25;;;14.80;90.40;;;;;;5013700;28;20030;-88
2021/05/21 00:56:04;;;;;;;5.72;5.13;;;14.90;90.30;;;;;;5029051;28;20032;-88
2021/05/21 00:58:30;;;;;;;6.15;3.50;;;14.90;90.10;;;;;;5035849;28;20029;-90
2021/05/21 01:00:56;;;;;;;4.93;3.00;;;14.90;89.00;;;;;;5018400;28;20030;-88
2021/05/21 01:03:23;;;;;;;3.03;2.20;;;14.90;88.50;;;;;;5035125;28;20340;-85
2021/05/21 01:05:50;;;;;;;4.88;2.45;;;14.80;88.20;;;;;;5036326;28;20051;-89
2021/05/21 01:08:16;;;;;;;4.60;2.97;;;14.70;88.50;;;;;;5036240;28;20052;-90
2021/05/21 01:10:43;;;;;;;6.80;2.45;;;14.60;88.80;;;;;;5035930;28;20431;-89
2021/05/21 01:13:08;;;;;;;4.20;2.30;;;14.50;88.60;;;;;;5036712;28;20493;-88
2021/05/21 01:15:40;;;;;;;6.45;2.97;;;14.50;88.10;;;;;;5037639;28;20033;-89
2021/05/21 01:18:07;;;;;;;3.25;2.15;;;14.30;87.70;;;;;;5033691;28;20025;-91
2021/05/21 01:20:34;;;;;;;4.93;2.72;;;14.30;87.70;;;;;;5039163;28;20048;-88
2021/05/21 01:23:01;;;;;;;3.33;2.20;;;14.30;87.90;;;;;;5018173;28;20483;-88
2021/05/21 01:25:27;;;;;;;2.03;1.70;;;14.40;86.70;;;;;;5036915;28;20041;-88
2021/05/21 01:27:55;;;;;;;5.85;2.28;;;14.40;85.90;;;;;;5042343;28;20095;-88
2021/05/21 01:30:21;;;;;;;1.67;1.35;;;14.30;84.80;;;;;;5055961;28;20079;-88
2021/05/21 01:32:47;;;;;;;2.85;1.75;;;14.00;84.50;;;;;;5054741;28;20075;-88
2021/05/21 01:35:18;;;;;;;1.98;1.13;;;14.00;84.70;;;;;;5055600;28;20466;-88
2021/05/21 01:37:47;;;;;;;2.47;1.50;;;13.90;84.50;;;;;;5050691;28;20091;-90
2021/05/21 01:40:14;;;;;;;3.90;1.50;;;13.90;84.20;;;;;;5056288;28;20025;-88
2021/05/21 01:42:41;;;;;;;1.63;1.27;;;13.80;84.40;;;;;;5055590;28;20040;-89
2021/05/21 01:45:09;;;;;;;2.28;1.58;;;13.80;84.50;;;;;;5055552;28;20016;-89
2021/05/21 01:47:37;;;;;;;1.30;1.20;;;13.80;84.90;;;;;;5055457;28;20047;-88
2021/05/21 01:50:05;;;;;;;1.73;1.63;;;13.90;84.50;;;;;;5055106;28;20033;-90
2021/05/21 01:52:31;;;;;;;2.97;1.77;;;13.90;84.60;;;;;;5037886;28;20017;-89
2021/05/21 01:54:57;;;;;;;6.80;1.73;;;13.90;84.40;;;;;;5056184;28;20363;-90
2021/05/21 01:57:23;;;;;;;3.60;1.30;;;14.00;84.10;;;;;;5056258;28;20029;-87
2021/05/21 01:59:49;;;;;;;1.95;1.50;;;13.90;84.10;;;;;;5057261;28;20043;-90
2021/05/21 02:02:14;;;;;;;2.08;1.50;;;13.70;84.50;;;;;;5059878;28;20025;-88
2021/05/21 02:04:41;;;;;;;2.25;1.45;;;13.70;85.10;;;;;;5057379;28;20026;-88
2021/05/21 02:07:13;;;;;;;4.57;1.70;;;13.80;85.00;;;;;;5049164;28;20018;-87
2021/05/21 02:09:54;;;;;;;2.42;1.50;;;13.80;84.80;;;;;;5046244;28;20113;-87
2021/05/21 02:12:28;;;;;;;3.10;1.77;;;13.80;84.70;;;;;;5039914;28;20016;-87
2021/05/21 02:14:57;;;;;;;5.13;1.42;;;13.70;85.00;;;;;;5056843;28;20489;-88
2021/05/21 02:17:22;;;;;;;1.98;1.70;;;13.60;85.40;;;;;;5061957;28;20037;-87
2021/05/21 02:19:48;;;;;;;3.80;1.13;;;13.70;85.00;;;;;;5072649;28;20009;-85
2021/05/21 02:22:18;;;;;;;2.00;1.30;;;13.90;84.60;;;;;;5074450;28;20020;-85
2021/05/21 02:24:44;;;;;;;2.28;1.73;;;14.10;83.90;;;;;;5059135;28;20017;-87
2021/05/21 02:27:10;;;;;;;3.22;1.40;;;14.00;83.50;;;;;;5058971;28;20020;-90
2021/05/21 02:29:37;;;;;;;2.47;1.60;;;14.00;83.70;;;;;;5056314;28;20021;-84
2021/05/21 02:32:03;;;;;;;3.03;1.65;;;14.00;83.60;;;;;;5020779;28;20270;-86
2021/05/21 02:34:28;;;;;;;3.05;1.30;;;14.00;83.30;;;;;;5034688;28;20025;-87
2021/05/21 02:36:54;;;;;;;2.15;1.80;;;13.90;83.30;;;;;;5034757;28;20391;-84
2021/05/21 02:39:20;;;;;;;1.35;1.25;;;13.90;83.60;;;;;;5014140;28;20053;-86
2021/05/21 02:41:46;;;;;;;2.67;2.08;;;13.70;83.60;;;;;;5044432;28;20401;-86
2021/05/21 02:44:12;;;;;;;1.45;1.33;;;13.70;84.00;;;;;;5034538;28;20047;-87
2021/05/21 02:46:37;;;;;;;3.28;1.45;;;13.60;84.20;;;;;;5034040;28;20557;-87
2021/05/21 02:49:03;;;;;;;2.72;1.85;;;13.60;84.80;;;;;;5034975;28;20029;-87
2021/05/21 02:51:29;;;;;;;2.35;1.70;;;13.60;84.90;;;;;;5017023;28;20025;-89
2021/05/21 02:53:55;;;;;;;2.47;1.63;;;13.50;85.00;;;;;;5037974;28;20036;-86
2021/05/21 02:56:21;;;;;;;1.60;1.40;;;13.50;85.60;;;;;;5038254;28;20029;-87
2021/05/21 02:58:46;;;;;;;2.63;1.70;;;13.50;85.70;;;;;;5031323;28;20030;-87
2021/05/21 03:01:12;;;;;;;3.28;2.15;;;13.50;85.90;;;;;;5037417;28;20025;-85
2021/05/21 03:03:38;;;;;;;2.30;1.67;;;13.50;85.90;;;;;;5041038;28;20046;-85
2021/05/21 03:06:04;;;;;;;3.33;1.83;;;13.40;86.20;;;;;;5041666;28;20109;-88
2021/05/21 03:08:30;;;;;;;2.67;1.67;;;13.40;86.20;;;;;;5022116;28;20033;-87
2021/05/21 03:10:56;;;;;;;5.00;1.55;;;13.40;86.40;;;;;;5038572;28;20021;-86
2021/05/21 03:13:21;;;;;;;2.85;1.88;;;13.40;86.60;;;;;;5021221;28;20030;-87
2021/05/21 03:15:49;;;;;;;3.63;1.90;;;13.40;86.50;;;;;;5021658;28;20042;-87
2021/05/21 03:18:22;;;;;;;2.55;1.48;;;13.40;86.60;;;;;;5039238;28;20129;-87
2021/05/21 03:20:48;;;;;;;3.45;1.70;;;13.50;86.60;;;;;;5039174;28;20065;-86
2021/05/21 03:23:14;;;;;;;3.30;1.67;;;13.50;86.50;;;;;;5038985;28;20021;-83
2021/05/21 03:25:42;;;;;;;1.50;1.33;;;13.60;86.90;;;;;;5021673;28;20020;-85
2021/05/21 03:28:10;;;;;;;1.67;1.35;;;13.50;86.10;;;;;;5055583;28;20045;-86
2021/05/21 03:30:36;;;;;;;2.47;1.35;;;13.60;86.40;;;;;;5059033;28;20097;-87
2021/05/21 03:33:03;;;;;;;1.70;1.38;;;13.80;85.90;;;;;;5059051;28;20029;-86
2021/05/21 03:35:29;;;;;;;1.90;1.30;;;13.70;85.60;;;;;;5058612;28;20059;-87
2021/05/21 03:37:54;;;;;;;1.88;1.48;;;13.70;86.00;;;;;;5058365;28;20060;-86
2021/05/21 03:40:20;;;;;;;3.67;1.50;;;13.60;87.20;;;;;;5054047;28;20373;-87
2021/05/21 03:42:48;;;;;;;1.20;1.10;;;13.60;87.50;;;;;;5043797;28;20479;-87
2021/05/21 03:45:15;;;;;;;1.70;1.40;;;13.50;87.80;;;;;;5050758;28;20033;-90
2021/05/21 03:47:41;;;;;;;2.20;1.00;;;13.40;88.50;;;;;;5054724;28;20029;-87
2021/05/21 03:50:08;;;;;;;1.88;1.20;;;13.30;89.30;;;;;;5057785;28;20249;-89
2021/05/21 03:52:34;;;;;;;2.67;1.35;;;13.20;89.90;;;;;;5059686;28;20039;-88
2021/05/21 03:55:00;;;;;;;4.10;1.30;;;13.10;90.20;;;;;;5059830;28;20096;-88
2021/05/21 03:57:27;;;;;;;2.65;1.25;;;13.20;90.30;;;;;;5056937;28;20050;-85
2021/05/21 03:59:53;;;;;;;3.13;1.55;;;13.30;90.30;;;;;;5056294;28;20021;-85
2021/05/21 04:02:19;;;;;;;2.78;1.20;;;13.50;89.90;;;;;;5057649;28;20027;-88
2021/05/21 04:04:45;;;;;;;3.35;1.45;;;13.50;89.40;;;;;;5056686;28;20021;-87
2021/05/21 04:07:11;;;;;;;1.80;1.30;;;13.70;89.00;;;;;;5040419;28;20021;-87
2021/05/21 04:09:37;;;;;;;3.65;1.20;;;13.70;88.50;;;;;;5059261;28;20471;-86
2021/05/21 04:12:04;;;;;;;4.00;1.45;;;13.80;88.30;;;;;;5057111;28;20036;-87
2021/05/21 04:14:29;;;;;;;2.00;1.67;;;13.80;87.80;;;;;;5046810;28;20406;-86
2021/05/21 04:16:55;;;;;;;1.67;1.48;;;13.80;87.90;;;;;;5050978;28;20037;-87
2021/05/21 04:19:21;;;;;;;1.30;1.20;;;13.80;88.00;;;;;;5054422;28;20028;-83
2021/05/21 04:21:47;;;;;;;3.72;1.08;;;13.80;88.40;;;;;;5058940;28;20041;-85
2021/05/21 04:24:13;;;;;;;2.30;1.50;;;13.90;88.30;;;;;;5043059;28;20019;-87
2021/05/21 04:26:39;;;;;;;2.67;1.48;;;13.80;87.80;;;;;;5062139;28;20479;-87
2021/05/21 04:29:05;;;;;;;2.38;1.65;;;13.70;88.80;;;;;;5059760;28;20075;-86
2021/05/21 04:31:30;;;;;;;2.17;1.20;;;13.60;89.10;;;;;;5057877;28;20544;-87
2021/05/21 04:33:56;;;;;;;5.47;1.20;;;13.60;89.10;;;;;;5046412;28;20029;-87
2021/05/21 04:36:22;;;;;;;2.13;1.40;;;13.60;89.40;;;;;;5056809;28;20093;-87
2021/05/21 04:38:48;;;;;;;2.90;1.45;;;13.60;90.00;;;;;;5045426;28;20074;-84
2021/05/21 04:41:14;;;;;;;3.65;1.70;;;13.70;89.90;;;;;;5064085;28;20047;-87
2021/05/21 04:43:40;;;;;;;3.28;1.38;;;13.60;90.10;;;;;;5057955;28;20036;-87
2021/05/21 04:46:06;;;;;;;2.20;1.73;;;13.70;90.00;;;;;;5058284;28;20017;-85
2021/05/21 04:48:33;;;;;;;1.73;1.45;;;13.70;90.00;;;;;;5057888;28;20029;-84
2021/05/21 04:51:00;;;;;;;3.83;1.40;;;13.70;90.10;;;;;;5057118;28;20093;-84
2021/05/21 04:53:25;;;;;;;2.45;1.58;;;13.80;89.80;;;;;;5055936;28;20032;-84
2021/05/21 04:55:52;;;;;;;2.83;1.38;;;13.60;89.90;;;;;;5055379;28;20028;-85
2021/05/21 04:58:18;;;;;;;2.20;1.20;;;13.70;90.10;;;;;;5058091;28;20115;-87
2021/05/21 05:00:45;;;;;;;2.55;1.30;;;13.80;89.40;;;;;;5052169;28;20025;-88
2021/05/21 05:03:13;;;;;;;3.00;1.50;;;13.80;89.90;;;;;;5057165;28;20021;-87
2021/05/21 05:05:39;;;;;;;1.70;1.13;;;13.80;89.60;;;;;;5057523;28;20735;-87
2021/05/21 05:08:09;;;;;;;1.65;1.10;;;13.70;89.70;;;;;;5053387;28;20025;-87
2021/05/21 05:10:35;;;;;;;2.33;1.60;;;13.50;90.10;;;;;;5047000;28;20029;-87
2021/05/21 05:13:02;;;;;;;4.88;2.30;;;13.50;90.30;;;;;;5058839;28;20029;-87
2021/05/21 05:15:33;;;;;;;2.85;1.23;;;13.70;90.40;;;;;;5060539;28;20046;-88
2021/05/21 05:18:00;;;;;;;1.20;1.10;;;13.80;90.20;;;;;;5081630;28;20035;-86
2021/05/21 05:20:35;;;;;;;1.47;1.20;;;13.80;90.30;;;;;;5047603;28;20482;-88
2021/05/21 05:23:02;;;;;;;1.50;1.23;;;13.60;90.60;;;;;;5062803;28;20103;-88
2021/05/21 05:25:36;;;;;;;2.80;1.42;;;13.50;91.10;;;;;;5047813;28;20059;-89
2021/05/21 05:28:02;;;;;;;3.10;1.50;;;13.40;91.60;;;;;;5034504;28;20127;-88
2021/05/21 05:30:27;;;;;;;3.15;1.73;;;13.40;92.00;;;;;;5056467;28;20028;-88
2021/05/21 05:32:53;;;;;;;2.15;1.67;;;13.30;92.30;;;;;;5060762;28;20027;-89
2021/05/21 05:35:19;;;;;;;1.95;1.38;;;13.30;92.90;;;;;;5061068;28;20032;-89
2021/05/21 05:37:45;;;;;;;3.00;2.00;;;13.20;92.90;;;;;;5060775;28;20072;-90
2021/05/21 05:40:11;;;;;;;2.20;1.58;;;13.30;93.20;;;;;;5061384;28;20048;-90
2021/05/21 05:42:37;;;;;;;1.77;1.48;;;13.30;93.20;;;;;;5059040;28;20031;-90
2021/05/21 05:45:03;;;;;;;2.22;1.50;;;13.40;93.20;;;;;;5054195;28;20398;-89
2021/05/21 05:47:29;;;;;;;3.55;2.30;;;13.50;93.20;;;;;;5035983;28;20059;-84
2021/05/21 05:49:55;;;;;;;2.58;1.20;;;13.40;93.10;;;;;;5051263;28;20035;-87
2021/05/21 05:52:21;;;;;;;1.40;1.30;;;13.40;93.20;;;;;;5060849;28;20029;-89
2021/05/21 05:54:47;;;;;;;2.28;1.75;;;13.40;93.10;;;;;;5063383;28;20021;-89
2021/05/21 05:57:13;;;;;;;4.55;1.85;;;13.40;93.10;;;;;;5063809;28;20123;-88
2021/05/21 05:59:40;;;;;;;1.77;1.35;;;13.40;92.80;;;;;;5066648;28;20025;-90
2021/05/21 06:02:06;;;;;;;2.40;1.58;;;13.50;92.60;;;;;;5066777;28;20024;-89
2021/05/21 06:04:31;;;;;;;1.50;1.13;;;13.50;92.40;;;;;;5065276;28;20078;-89
2021/05/21 06:06:57;;;;;;;1.60;1.50;;;13.60;92.10;;;;;;5048274;28;20033;-89
2021/05/21 06:09:23;;;;;;;1.85;1.30;;;13.80;91.60;;;;;;5067094;28;20035;-88
2021/05/21 06:11:50;;;;;;;2.70;1.25;;;13.90;91.00;;;;;;5064144;28;20025;-90
2021/05/21 06:14:15;;;;;;;1.45;1.10;;;14.00;90.70;;;;;;5034207;28;20017;-89
2021/05/21 06:16:43;;;;;;;2.33;1.35;;;14.10;90.50;;;;;;5047947;28;20034;-92
2021/05/21 06:19:09;;;;;;;2.03;1.30;;;14.20;90.30;;;;;;5066746;28;20017;-89
2021/05/21 06:21:35;;;;;;;2.42;1.50;;;14.20;90.10;;;;;;5049267;28;20040;-92
2021/05/21 06:24:01;;;;;;;1.95;1.38;;;14.30;89.60;;;;;;5058954;28;20025;-88
2021/05/21 06:26:34;;;;;;;2.33;1.88;;;14.10;90.00;;;;;;5063014;28;20026;-89
2021/05/21 06:29:00;;;;;;;3.00;1.70;;;14.20;90.00;;;;;;5051765;28;20053;-90
2021/05/21 06:31:28;;;;;;;5.70;1.88;;;14.20;90.00;;;;;;5069592;28;20090;-88
2021/05/21 06:33:54;;;;;;;2.80;1.67;;;14.20;89.70;;;;;;5070748;28;20017;-92
2021/05/21 06:36:19;;;;;;;2.72;1.77;;;14.30;89.90;;;;;;5070934;28;20021;-91
2021/05/21 06:38:45;;;;;;;3.50;1.88;;;14.30;89.20;;;;;;5074031;28;20028;-88
2021/05/21 06:41:11;;;;;;;2.53;1.80;;;14.30;90.00;;;;;;5064225;28;20494;-89
2021/05/21 06:43:37;;;;;;;4.07;1.92;;;14.40;90.40;;;;;;5066145;28;20029;-90
2021/05/21 06:46:06;;;;;;;2.60;1.45;;;14.40;90.30;;;;;;5035545;28;20028;-92
2021/05/21 06:48:32;;;;;;;3.17;1.60;;;14.30;89.80;;;;;;5044938;28;20028;-89
2021/05/21 06:51:07;;;;;;;3.70;1.48;;;14.50;90.40;;;;;;5061550;28;20025;-90
2021/05/21 06:53:34;;;;;;;4.50;1.58;;;14.70;89.00;;;;;;5047029;28;20111;-89
2021/05/21 06:56:00;;;;;;;3.70;1.80;;;14.90;88.90;;;;;;5061525;28;20021;-93
2021/05/21 06:58:26;;;;;;;3.38;2.08;;;15.50;87.00;;;;;;5059413;28;20490;-90
2021/05/21 07:00:54;;;;;;;3.55;1.48;;;16.10;83.80;;;;;;5055073;28;20018;-90
2021/05/21 07:03:20;;;;;;;4.50;1.60;;;16.50;81.00;;;;;;5058606;28;20031;-88
2021/05/21 07:05:47;;;;;;;3.75;1.63;;;16.70;79.30;;;;;;5059364;28;20079;-90
2021/05/21 07:08:18;;;;;;;2.00;1.30;;;16.80;78.40;;;;;;5046339;28;20114;-93
2021/05/21 07:10:44;;;;;;;3.72;1.73;;;16.80;77.90;;;;;;5061012;28;20025;-88
2021/05/21 07:13:12;;;;;;;3.70;1.52;;;16.80;78.00;;;;;;5060189;28;20055;-90
2021/05/21 07:15:38;;;;;;;2.25;1.52;;;16.70;77.20;;;;;;5040365;28;20112;-90
2021/05/21 07:18:05;;;;;;;4.90;1.90;;;16.70;78.00;;;;;;5046874;28;20029;-91
2021/05/21 07:20:31;;;;;;;4.47;1.65;;;16.90;76.90;;;;;;5051246;28;20026;-91
2021/05/21 07:22:57;;;;;;;4.45;1.80;;;17.00;75.90;;;;;;5052590;28;20033;-90
2021/05/21 07:25:24;;;;;;;5.65;2.40;;;17.10;75.20;;;;;;5054137;28;20018;-92
2021/05/21 07:27:51;;;;;;;4.73;1.90;;;17.40;74.90;;;;;;5058180;28;20049;-93
2021/05/21 07:30:18;;;;;;;4.35;1.65;;;17.50;74.00;;;;;;5048634;28;20029;-90
2021/05/21 07:32:44;;;;;;;1.98;1.75;;;17.50;73.50;;;;;;5062744;28;20040;-89
2021/05/21 07:35:11;;;;;;;4.82;1.48;;;17.60;72.70;;;;;;5068838;28;20021;-91
2021/05/21 07:37:38;;;;;;;7.63;2.17;;;17.80;73.10;;;;;;5060056;28;20129;-90
2021/05/21 07:40:06;;;;;;;4.43;1.80;;;18.00;71.50;;;;;;5063598;28;20017;-92
2021/05/21 07:42:33;;;;;;;3.42;1.33;;;18.40;69.80;;;;;;5050464;28;20085;-91
2021/05/21 07:44:59;;;;;;;6.18;2.22;;;19.10;67.80;;;;;;5048898;28;20025;-92
2021/05/21 07:47:25;;;;;;;5.82;1.23;;;19.40;66.60;;;;;;5046144;28;20491;-93
2021/05/21 07:49:51;;;;;;;2.83;1.50;;;19.60;64.60;;;;;;5048649;28;20029;-91
2021/05/21 07:52:17;;;;;;;3.40;1.52;;;20.40;64.60;;;;;;5060152;28;20025;-91
2021/05/21 07:54:42;;;;;;;6.28;1.35;;;20.90;59.90;;;;;;5046375;28;20021;-92
2021/05/21 07:57:08;;;;;;;4.82;1.38;;;20.60;60.50;;;;;;5060324;28;20056;-93
2021/05/21 07:59:34;;;;;;;4.88;1.95;;;20.30;60.80;;;;;;5058875;28;20025;-94
2021/05/21 08:02:00;;;;;;;4.80;1.60;;;20.10;62.30;;;;;;5047135;28;20387;-92
2021/05/21 08:04:26;;;;;;;1.25;0.98;;;20.40;61.80;;;;;;5063690;28;20021;-91
2021/05/21 08:06:52;;;;;;;6.50;1.17;;;20.40;60.90;;;;;;5049145;28;20028;-92
2021/05/21 08:09:18;;;;;;;4.18;1.25;;;20.90;59.90;;;;;;5062008;28;20390;-92
2021/05/21 08:11:44;;;;;;;5.57;3.47;;;20.60;58.60;;;;;;5062474;28;20183;-90
2021/05/21 08:14:11;;;;;;;3.92;1.55;;;20.50;59.90;;;;;;5065073;28;20151;-91
2021/05/21 08:16:37;;;;;;;2.38;0.93;;;20.50;59.80;;;;;;5069727;28;20051;-91
2021/05/21 08:19:03;;;;;;;3.15;1.23;;;20.50;59.50;;;;;;5066072;28;20028;-91
2021/05/21 08:21:32;;;;;;;1.53;0.97;;;20.80;59.40;;;;;;5062098;28;20014;-91
2021/05/21 08:24:00;;;;;;;2.20;0.88;;;20.90;58.80;;;;;;5066591;28;20270;-91
2021/05/21 08:26:26;;;;;;;;;;;20.50;58.20;;;;;;5064229;28;20028;-90
2021/05/21 08:28:56;;;;;;;3.35;1.02;;;20.20;60.00;;;;;;5049315;28;19924;-92
2021/05/21 08:31:24;;;;;;;2.75;1.17;;;20.20;59.80;;;;;;5063398;28;20475;-93
2021/05/21 08:33:50;;;;;;;2.13;1.10;;;20.00;59.90;;;;;;5035298;28;20025;-90
2021/05/21 08:36:17;;;;;;;4.50;1.13;;;19.90;60.30;;;;;;5073882;28;20021;-92
2021/05/21 08:38:46;;;;;;;5.43;1.00;;;19.80;60.30;;;;;;5058866;28;20065;-90
2021/05/21 08:41:23;;;;;;;3.58;0.90;;;19.20;61.80;;;;;;5045073;28;20048;-93
2021/05/21 08:43:51;;;;;;;4.13;0.70;;;18.60;65.00;;;;;;5051975;28;20029;-90
2021/05/21 08:46:22;;;;;;;1.60;0.95;;;17.10;69.30;;;;;;5040441;28;20378;-92
2021/05/21 08:48:48;;;;;;;1.35;0.80;;;16.10;74.70;;;;;;5062936;28;20025;-91
2021/05/21 08:51:15;;;;;;;1.13;0.70;;;15.80;77.40;;;;;;5031726;28;20032;-91
2021/05/21 08:53:42;;;;;;;1.13;0.65;;;15.70;80.00;;;;;;5047616;28;20032;-93
2021/05/21 08:56:09;;;;;;;1.65;0.90;;;16.20;79.30;;;;;;5068558;28;20040;-92
2021/05/21 08:58:43;;;;;;;7.10;1.13;;;17.00;77.70;;;;;;5062536;28;20117;-92
2021/05/21 09:01:10;;;;;;;2.97;1.10;;;18.20;73.60;;;;;;5042422;28;20029;-90
2021/05/21 09:03:36;;;;;;;1.83;0.40;;;19.50;68.60;;;;;;5064751;28;20021;-92
2021/05/21 09:06:23;;;;;;;2.05;0.70;;;20.00;64.50;;;;;;5062435;28;20040;-93
2021/05/21 09:08:51;;;;;;;2.47;0.90;;;19.40;63.30;;;;;;5071642;28;20031;-90
2021/05/21 09:11:36;;;;;;;5.95;1.20;;;18.60;65.90;;;;;;5068662;28;20021;-93
2021/05/21 09:14:15;;;;;;;1.60;0.77;;;18.80;65.60;;;;;;5064546;28;20351;-92
2021/05/21 09:16:42;;;;;;;3.28;1.40;;;18.70;66.10;;;;;;5064688;28;20029;-92
2021/05/21 09:19:09;;;;;;;2.05;0.80;;;18.60;67.00;;;;;;5048432;28;20017;-91
2021/05/21 09:22:01;;;;;;;4.32;2.08;;;18.30;67.00;;;;;;5068247;28;20031;-92
2021/05/21 09:24:28;;;;;;;3.60;2.35;;;17.80;69.00;;;;;;5049103;28;20044;-93
2021/05/21 09:26:56;;;;;;;2.83;1.73;;;17.60;69.30;;;;;;5059697;28;20025;-92
2021/05/21 09:29:57;;;;;;;3.75;1.40;;;17.40;69.40;;;;;;5067906;28;20037;-91
2021/05/21 09:32:28;;;;;;;2.70;1.70;;;17.30;69.90;;;;;;5024008;28;20033;-93
2021/05/21 09:35:15;;;;;;;3.65;1.15;;;17.20;70.70;;;;;;5051842;28;20051;-93
2021/05/21 09:37:52;;;;;;;2.08;1.20;;;17.40;69.80;;;;;;5058893;28;20101;-91
2021/05/21 09:40:29;;;;;;;2.35;0.65;;;17.30;69.30;;;;;;5041794;28;20045;-90
2021/05/21 09:43:05;;;;;;;3.37;1.93;;;17.30;68.20;;;;;;5061029;28;20025;-90
2021/05/21 09:45:36;;;;;;;1.88;0.93;;;17.10;69.20;;;;;;5062822;28;20270;-91
2021/05/21 09:48:11;;;;;;;2.65;1.45;;;17.40;68.70;;;;;;5062706;28;20025;-90
2021/05/21 09:50:50;;;;;;;2.22;1.23;;;17.50;68.30;;;;;;5060801;28;20025;-92
2021/05/21 09:53:21;;;;;;;1.08;0.85;;;17.50;68.50;;;;;;5060796;28;20107;-93
2021/05/21 09:55:54;;;;;;;1.95;0.85;;;17.40;68.80;;;;;;5052165;28;20025;-92
2021/05/21 09:58:42;;;;;;;2.17;1.73;;;17.10;68.50;;;;;;5060392;28;20483;-91
2021/05/21 10:01:20;;;;;;;3.58;1.20;;;16.90;70.20;;;;;;5061840;28;20029;-91
2021/05/21 10:03:55;;;;;;;8.80;3.42;;;17.30;70.60;;;;;;5053600;28;20020;-92
2021/05/21 10:06:24;;;;;;;25.52;12.63;;;17.80;69.60;;;;;;4989378;28;20089;-90
2021/05/21 10:08:54;;;;;;;3.95;2.00;;;18.30;69.90;;;;;;4988813;28;20039;-93
2021/05/21 10:11:20;;;;;;;3.75;1.48;;;18.80;66.60;;;;;;5001683;28;20077;-92
2021/05/21 10:13:46;;;;;;;3.42;1.00;;;19.90;63.10;;;;;;5006990;28;20018;-91
2021/05/21 10:16:14;;;;;;;2.85;0.80;;;20.20;59.80;;;;;;5012518;28;20045;-90
2021/05/21 10:18:49;;;;;;;2.88;0.80;;;20.10;58.50;;;;;;5011859;28;20041;-91
2021/05/21 10:21:17;;;;;;;5.50;1.50;;;19.20;59.30;;;;;;5000605;28;20038;-91
2021/05/21 10:23:53;;;;;;;2.50;1.27;;;18.50;62.20;;;;;;4998473;28;20380;-91
2021/05/21 10:26:49;;;;;;;2.28;1.05;;;18.10;63.40;;;;;;4985309;28;20038;-91
2021/05/21 10:29:20;;;;;;;4.00;0.93;;;17.70;64.70;;;;;;4994540;28;20057;-91
2021/05/21 10:31:50;;;;;;;8.23;2.80;;;17.60;65.20;;;;;;5004958;28;20031;-93
2021/05/21 10:34:22;;;;;;;3.38;1.50;;;17.60;66.60;;;;;;5005079;28;20030;-92
2021/05/21 10:36:52;;;;;;;7.72;1.85;;;18.00;65.00;;;;;;5025307;28;20047;-90
2021/05/21 10:39:20;;;;;;;4.93;1.60;;;18.40;62.80;;;;;;5058648;28;20367;-92
2021/05/21 10:41:57;;;;;;;7.43;2.13;;;18.40;62.20;;;;;;5021741;28;20031;-91
2021/05/21 10:44:28;;;;;;;5.57;2.20;;;18.10;62.30;;;;;;5047527;28;20033;-92
2021/05/21 10:47:19;;;;;;;7.78;1.98;;;17.80;62.80;;;;;;5059835;28;20028;-92
2021/05/21 10:49:51;;;;;;;3.15;1.70;;;17.60;63.40;;;;;;5044639;28;20504;-91
2021/05/21 10:52:49;;;;;;;5.38;1.67;;;17.80;62.70;;;;;;5058539;28;20021;-92
2021/05/21 10:55:16;;;;;;;5.35;1.10;;;18.40;62.10;;;;;;5052562;28;20081;-92
2021/05/21 10:58:00;;;;;;;5.30;1.52;;;18.90;60.90;;;;;;5052386;28;20085;-92
2021/05/21 11:00:26;;;;;;;4.30;1.80;;;19.30;59.90;;;;;;5045838;28;20479;-92
2021/05/21 11:02:54;;;;;;;3.97;2.47;;;19.50;59.30;;;;;;5057436;28;20407;-90
2021/05/21 11:05:27;;;;;;;4.38;2.30;;;19.40;59.00;;;;;;5059508;28;20093;-90
2021/05/21 11:08:20;;;;;;;5.78;1.90;;;19.00;59.00;;;;;;5059613;28;20042;-93
2021/05/21 11:10:50;;;;;;;7.90;1.38;;;18.00;60.30;;;;;;5030521;28;20059;-92
2021/05/21 11:13:17;;;;;;;4.60;1.00;;;17.40;61.80;;;;;;5060145;28;20025;-91
2021/05/21 11:15:52;;;;;;;3.25;1.15;;;16.70;64.10;;;;;;5066832;28;20025;-92
2021/05/21 11:18:21;;;;;;;5.15;1.42;;;16.40;66.10;;;;;;5053790;28;20037;-90
2021/05/21 11:21:00;;;;;;;1.95;1.40;;;16.40;65.90;;;;;;5052190;28;20032;-91
2021/05/21 11:23:48;;;;;;;4.65;1.60;;;16.40;65.80;;;;;;5052046;28;20021;-91
2021/05/21 11:26:14;;;;;;;3.38;1.50;;;16.50;65.80;;;;;;5032577;28;20102;-91
2021/05/21 11:28:42;;;;;;;2.65;1.00;;;16.70;65.00;;;;;;5059352;28;20059;-92
2021/05/21 11:31:17;;;;;;;5.30;1.02;;;16.80;64.40;;;;;;5044905;28;20478;-94
2021/05/21 11:33:45;;;;;;;1.75;1.30;;;16.60;64.50;;;;;;5032025;28;20035;-91
2021/05/21 11:36:11;;;;;;;;;;;16.50;64.80;;;;;;5044858;28;20115;-91
2021/05/21 11:38:37;;;;;;;7.60;2.17;;;16.20;65.20;;;;;;5046415;28;19944;-92
2021/05/21 11:41:06;;;;;;;23.30;8.90;;;16.00;66.90;;;;;;5063384;28;20023;-89
2021/05/21 11:43:37;;;;;;;3.00;1.85;;;16.00;68.00;;;;;;5047217;28;20039;-91
2021/05/21 11:46:22;;;;;;;7.78;1.92;;;16.00;68.30;;;;;;5066673;28;20032;-93
2021/05/21 11:48:49;;;;;;;12.77;3.47;;;16.00;67.70;;;;;;5077411;28;20051;-92
2021/05/21 11:51:22;;;;;;;8.85;3.25;;;16.00;68.00;;;;;;5054191;28;20056;-92
2021/05/21 11:54:02;;;;;;;6.55;2.55;;;16.10;67.90;;;;;;5047550;28;20108;-92
2021/05/21 11:56:33;;;;;;;4.57;1.63;;;16.50;67.00;;;;;;5061893;28;20024;-94
2021/05/21 11:59:08;;;;;;;3.53;1.70;;;16.80;66.20;;;;;;5048679;28;20028;-93
2021/05/21 12:01:36;;;;;;;1.95;1.35;;;17.20;65.10;;;;;;5061352;28;20031;-91
2021/05/21 12:04:07;;;;;;;4.57;1.60;;;17.30;64.60;;;;;;5062370;28;20116;-91
2021/05/21 12:06:33;;;;;;;4.53;1.48;;;17.20;64.60;;;;;;5063403;28;20033;-93
2021/05/21 12:09:00;;;;;;;2.38;1.38;;;17.00;64.60;;;;;;5064349;28;20043;-91
2021/05/21 12:11:26;;;;;;;3.85;1.63;;;16.80;64.80;;;;;;5043530;28;20038;-92
2021/05/21 12:13:59;;;;;;;3.55;1.55;;;16.70;65.80;;;;;;5057625;28;20012;-91
2021/05/21 12:16:27;;;;;;;7.45;2.10;;;16.60;65.60;;;;;;5073972;28;20035;-93
2021/05/21 12:18:53;;;;;;;3.30;1.50;;;16.50;65.80;;;;;;5061751;28;20407;-92
2021/05/21 12:21:25;;;;;;;3.90;1.60;;;16.50;66.40;;;;;;5016651;28;20026;-93
2021/05/21 12:23:52;;;;;;;3.22;1.90;;;16.70;66.60;;;;;;5024883;28;20042;-90
2021/05/21 12:26:24;;;;;;;3.88;2.15;;;17.00;65.90;;;;;;5004408;28;20088;-91
2021/05/21 12:28:51;;;;;;;7.15;2.13;;;17.10;65.10;;;;;;5005309;28;20053;-92
2021/05/21 12:31:36;;;;;;;6.30;2.47;;;17.30;64.40;;;;;;5032383;28;20042;-89
2021/05/21 12:34:03;;;;;;;5.75;1.85;;;17.30;63.30;;;;;;5034929;28;20029;-91
2021/05/21 12:36:31;;;;;;;3.08;1.30;;;17.30;62.60;;;;;;5011280;28;20029;-88
2021/05/21 12:38:59;;;;;;;4.22;1.50;;;17.20;61.90;;;;;;5005111;28;20038;-92
2021/05/21 12:41:33;;;;;;;3.80;1.52;;;16.90;62.70;;;;;;5008662;28;20103;-91
2021/05/21 12:44:13;;;;;;;5.72;2.67;;;16.70;64.00;;;;;;5005855;28;20025;-91
2021/05/21 12:46:52;;;;;;;6.38;2.05;;;16.50;64.90;;;;;;5023806;28;20113;-90
2021/05/21 12:49:24;;;;;;;4.35;2.40;;;16.50;65.40;;;;;;5022323;28;20030;-89
2021/05/21 12:51:52;;;;;;;3.88;1.50;;;16.50;65.80;;;;;;5017827;28;20030;-92
2021/05/21 12:54:23;;;;;;;6.18;2.13;;;16.70;64.30;;;;;;5017972;28;20164;-91